sensor_id;sensor_type;location;lat;lon;timestamp;pressure;altitude;pressure_sealevel;temperature;humidity
37200;BME280;23096;50.892;16.746;2024-02-21T00:01:50;99952.13;;;6.23;74.99
37200;BME280;23096;50.892;16.746;2024-02-21T00:04:15;99952.98;;;6.25;74.99
37200;BME280;23096;50.892;16.746;2024-02-21T00:06:41;99952.80;;;6.28;74.97
37200;BME280;23096;50.892;16.746;2024-02-21T00:09:06;99951.77;;;6.28;74.91
37200;BME280;23096;50.892;16.746;2024-02-21T00:11:32;99947.15;;;6.29;74.81
37200;BME280;23096;50.892;16.746;2024-02-21T00:13:57;99945.45;;;6.28;74.94
37200;BME280;23096;50.892;16.746;2024-02-21T00:16:23;99941.69;;;6.29;74.90
37200;BME280;23096;50.892;16.746;2024-02-21T00:18:49;99938.63;;;6.29;74.93
37200;BME280;23096;50.892;16.746;2024-02-21T00:21:14;99943.40;;;6.29;74.89
37200;BME280;23096;50.892;16.746;2024-02-21T00:23:46;99941.02;;;6.29;74.82
37200;BME280;23096;50.892;16.746;2024-02-21T00:26:12;99942.04;;;6.28;74.85
37200;BME280;23096;50.892;16.746;2024-02-21T00:28:39;99942.05;;;6.27;74.80
37200;BME280;23096;50.892;16.746;2024-02-21T00:31:04;99938.47;;;6.25;74.78
37200;BME280;23096;50.892;16.746;2024-02-21T00:33:30;99936.59;;;6.25;74.81
37200;BME280;23096;50.892;16.746;2024-02-21T00:35:55;99932.15;;;6.25;74.76
37200;BME280;23096;50.892;16.746;2024-02-21T00:38:21;99927.55;;;6.26;74.77
37200;BME280;23096;50.892;16.746;2024-02-21T00:40:47;99924.98;;;6.25;74.77
37200;BME280;23096;50.892;16.746;2024-02-21T00:43:12;99923.27;;;6.25;74.78
37200;BME280;23096;50.892;16.746;2024-02-21T00:45:38;99926.70;;;6.24;74.73
37200;BME280;23096;50.892;16.746;2024-02-21T00:48:04;99927.56;;;6.21;74.77
37200;BME280;23096;50.892;16.746;2024-02-21T00:50:29;99928.94;;;6.19;74.72
37200;BME280;23096;50.892;16.746;2024-02-21T00:52:55;99925.19;;;6.18;74.86
37200;BME280;23096;50.892;16.746;2024-02-21T00:55:21;99924.17;;;6.15;74.74
37200;BME280;23096;50.892;16.746;2024-02-21T00:57:46;99914.46;;;6.13;74.81
37200;BME280;23096;50.892;16.746;2024-02-21T01:00:12;99913.95;;;6.11;74.83
37200;BME280;23096;50.892;16.746;2024-02-21T01:02:38;99910.54;;;6.09;74.84
37200;BME280;23096;50.892;16.746;2024-02-21T01:05:04;99905.25;;;6.07;74.86
37200;BME280;23096;50.892;16.746;2024-02-21T01:07:29;99904.23;;;6.06;74.95
37200;BME280;23096;50.892;16.746;2024-02-21T01:09:55;99900.14;;;6.07;75.00
37200;BME280;23096;50.892;16.746;2024-02-21T01:12:20;99899.46;;;6.07;75.06
37200;BME280;23096;50.892;16.746;2024-02-21T01:14:46;99900.13;;;6.09;75.12
37200;BME280;23096;50.892;16.746;2024-02-21T01:17:12;99901.32;;;6.09;75.10
37200;BME280;23096;50.892;16.746;2024-02-21T01:19:37;99899.11;;;6.10;75.13
37200;BME280;23096;50.892;16.746;2024-02-21T01:22:04;99892.29;;;6.11;75.16
37200;BME280;23096;50.892;16.746;2024-02-21T01:24:29;99888.37;;;6.11;75.12
37200;BME280;23096;50.892;16.746;2024-02-21T01:26:55;99884.45;;;6.11;75.20
37200;BME280;23096;50.892;16.746;2024-02-21T01:29:20;99880.00;;;6.12;75.19
37200;BME280;23096;50.892;16.746;2024-02-21T01:31:46;99878.27;;;6.14;75.18
37200;BME280;23096;50.892;16.746;2024-02-21T01:34:13;99876.40;;;6.16;75.23
37200;BME280;23096;50.892;16.746;2024-02-21T01:36:38;99872.65;;;6.17;75.21
37200;BME280;23096;50.892;16.746;2024-02-21T01:39:04;99870.27;;;6.17;75.24
37200;BME280;23096;50.892;16.746;2024-02-21T01:41:30;99866.33;;;6.20;75.21
37200;BME280;23096;50.892;16.746;2024-02-21T01:43:56;99863.59;;;6.21;75.23
37200;BME280;23096;50.892;16.746;2024-02-21T01:46:23;99861.54;;;6.22;75.23
37200;BME280;23096;50.892;16.746;2024-02-21T01:48:56;99860.17;;;6.24;75.24
37200;BME280;23096;50.892;16.746;2024-02-21T01:51:21;99856.56;;;6.25;75.23
37200;BME280;23096;50.892;16.746;2024-02-21T01:53:47;99850.42;;;6.26;75.20
37200;BME280;23096;50.892;16.746;2024-02-21T01:56:13;99846.67;;;6.27;75.28
37200;BME280;23096;50.892;16.746;2024-02-21T01:58:40;99840.69;;;6.28;75.30
37200;BME280;23096;50.892;16.746;2024-02-21T02:01:07;99838.46;;;6.30;75.16
37200;BME280;23096;50.892;16.746;2024-02-21T02:03:33;99833.52;;;6.31;75.19
37200;BME280;23096;50.892;16.746;2024-02-21T02:05:59;99832.30;;;6.32;75.22
37200;BME280;23096;50.892;16.746;2024-02-21T02:08:25;99828.55;;;6.34;75.24
37200;BME280;23096;50.892;16.746;2024-02-21T02:10:52;99828.89;;;6.33;75.15
37200;BME280;23096;50.892;16.746;2024-02-21T02:13:17;99820.19;;;6.34;75.14
37200;BME280;23096;50.892;16.746;2024-02-21T02:15:47;99812.34;;;6.34;75.17
37200;BME280;23096;50.892;16.746;2024-02-21T02:18:14;99812.17;;;6.35;75.19
37200;BME280;23096;50.892;16.746;2024-02-21T02:20:40;99815.23;;;6.35;75.05
37200;BME280;23096;50.892;16.746;2024-02-21T02:25:39;99807.04;;;6.36;75.12
37200;BME280;23096;50.892;16.746;2024-02-21T02:28:08;99809.77;;;6.36;75.05
37200;BME280;23096;50.892;16.746;2024-02-21T02:30:37;99808.73;;;6.39;75.07
37200;BME280;23096;50.892;16.746;2024-02-21T02:33:05;99807.36;;;6.41;75.06
37200;BME280;23096;50.892;16.746;2024-02-21T02:35:32;99807.00;;;6.42;75.09
37200;BME280;23096;50.892;16.746;2024-02-21T02:37:58;99803.92;;;6.43;75.10
37200;BME280;23096;50.892;16.746;2024-02-21T02:40:24;99797.93;;;6.45;74.99
37200;BME280;23096;50.892;16.746;2024-02-21T02:42:50;99799.80;;;6.46;75.00
37200;BME280;23096;50.892;16.746;2024-02-21T02:45:17;99799.29;;;6.46;74.89
37200;BME280;23096;50.892;16.746;2024-02-21T02:47:46;99795.53;;;6.46;74.83
37200;BME280;23096;50.892;16.746;2024-02-21T02:50:12;99795.19;;;6.47;74.86
37200;BME280;23096;50.892;16.746;2024-02-21T02:52:38;99793.81;;;6.48;74.82
37200;BME280;23096;50.892;16.746;2024-02-21T02:55:05;99794.49;;;6.50;74.86
37200;BME280;23096;50.892;16.746;2024-02-21T02:57:31;99790.89;;;6.52;74.79
37200;BME280;23096;50.892;16.746;2024-02-21T02:59:56;99786.80;;;6.54;74.83
37200;BME280;23096;50.892;16.746;2024-02-21T03:02:22;99785.41;;;6.57;74.78
37200;BME280;23096;50.892;16.746;2024-02-21T03:04:48;99783.34;;;6.58;74.75
37200;BME280;23096;50.892;16.746;2024-02-21T03:07:14;99782.33;;;6.59;74.70
37200;BME280;23096;50.892;16.746;2024-02-21T03:09:40;99781.11;;;6.59;74.69
37200;BME280;23096;50.892;16.746;2024-02-21T03:12:08;99779.06;;;6.60;74.58
37200;BME280;23096;50.892;16.746;2024-02-21T03:14:34;99777.52;;;6.61;74.58
37200;BME280;23096;50.892;16.746;2024-02-21T03:17:01;99777.52;;;6.62;74.58
37200;BME280;23096;50.892;16.746;2024-02-21T03:19:26;99778.35;;;6.63;74.57
37200;BME280;23096;50.892;16.746;2024-02-21T03:21:52;99775.45;;;6.62;74.55
37200;BME280;23096;50.892;16.746;2024-02-21T03:24:21;99773.40;;;6.64;74.55
37200;BME280;23096;50.892;16.746;2024-02-21T03:26:47;99771.86;;;6.65;74.50
37200;BME280;23096;50.892;16.746;2024-02-21T03:29:15;99766.56;;;6.66;74.46
37200;BME280;23096;50.892;16.746;2024-02-21T03:31:41;99767.92;;;6.67;74.37
37200;BME280;23096;50.892;16.746;2024-02-21T03:34:07;99763.48;;;6.68;74.39
37200;BME280;23096;50.892;16.746;2024-02-21T03:36:33;99765.84;;;6.68;74.32
37200;BME280;23096;50.892;16.746;2024-02-21T03:38:59;99768.23;;;6.70;74.27
37200;BME280;23096;50.892;16.746;2024-02-21T03:41:25;99764.30;;;6.70;74.23
37200;BME280;23096;50.892;16.746;2024-02-21T03:43:50;99760.02;;;6.71;74.28
37200;BME280;23096;50.892;16.746;2024-02-21T03:46:16;99760.35;;;6.73;74.23
37200;BME280;23096;50.892;16.746;2024-02-21T03:48:41;99761.71;;;6.73;74.20
37200;BME280;23096;50.892;16.746;2024-02-21T03:51:08;99765.64;;;6.74;74.14
37200;BME280;23096;50.892;16.746;2024-02-21T03:53:33;99762.73;;;6.75;74.13
37200;BME280;23096;50.892;16.746;2024-02-21T03:56:02;99755.20;;;6.77;74.14
37200;BME280;23096;50.892;16.746;2024-02-21T03:58:32;99757.40;;;6.80;74.13
37200;BME280;23096;50.892;16.746;2024-02-21T04:01:02;99758.58;;;6.81;74.00
37200;BME280;23096;50.892;16.746;2024-02-21T04:03:28;99762.52;;;6.81;73.95
37200;BME280;23096;50.892;16.746;2024-02-21T04:05:54;99759.44;;;6.82;73.89
37200;BME280;23096;50.892;16.746;2024-02-21T04:08:19;99759.61;;;6.81;73.79
37200;BME280;23096;50.892;16.746;2024-02-21T04:10:45;99751.76;;;6.80;73.76
37200;BME280;23096;50.892;16.746;2024-02-21T04:13:10;99750.23;;;6.79;73.77
37200;BME280;23096;50.892;16.746;2024-02-21T04:15:36;99751.94;;;6.79;73.64
37200;BME280;23096;50.892;16.746;2024-02-21T04:18:02;99747.83;;;6.81;73.65
37200;BME280;23096;50.892;16.746;2024-02-21T04:20:28;99739.95;;;6.83;73.61
37200;BME280;23096;50.892;16.746;2024-02-21T04:22:54;99734.66;;;6.83;73.54
37200;BME280;23096;50.892;16.746;2024-02-21T04:25:20;99739.41;;;6.84;73.54
37200;BME280;23096;50.892;16.746;2024-02-21T04:27:46;99731.04;;;6.86;73.50
37200;BME280;23096;50.892;16.746;2024-02-21T04:30:12;99733.39;;;6.89;73.42
37200;BME280;23096;50.892;16.746;2024-02-21T04:32:37;99732.55;;;6.90;73.36
37200;BME280;23096;50.892;16.746;2024-02-21T04:35:04;99731.66;;;6.92;73.31
37200;BME280;23096;50.892;16.746;2024-02-21T04:37:30;99731.30;;;6.96;73.24
37200;BME280;23096;50.892;16.746;2024-02-21T04:39:56;99727.02;;;6.96;73.29
37200;BME280;23096;50.892;16.746;2024-02-21T04:42:22;99724.44;;;6.99;73.29
37200;BME280;23096;50.892;16.746;2024-02-21T04:44:48;99722.39;;;7.00;73.13
37200;BME280;23096;50.892;16.746;2024-02-21T04:47:14;99716.23;;;6.99;73.06
37200;BME280;23096;50.892;16.746;2024-02-21T04:49:39;99720.84;;;7.00;72.95
37200;BME280;23096;50.892;16.746;2024-02-21T04:52:05;99720.99;;;7.01;72.97
37200;BME280;23096;50.892;16.746;2024-02-21T04:54:31;99720.10;;;7.04;72.95
37200;BME280;23096;50.892;16.746;2024-02-21T04:56:56;99716.17;;;7.06;72.86
37200;BME280;23096;50.892;16.746;2024-02-21T04:59:22;99717.70;;;7.06;72.75
37200;BME280;23096;50.892;16.746;2024-02-21T05:01:47;99709.70;;;7.04;72.72
37200;BME280;23096;50.892;16.746;2024-02-21T05:04:13;99706.96;;;7.05;72.68
37200;BME280;23096;50.892;16.746;2024-02-21T05:06:39;99706.27;;;7.05;72.57
37200;BME280;23096;50.892;16.746;2024-02-21T05:09:06;99701.31;;;7.05;72.52
37200;BME280;23096;50.892;16.746;2024-02-21T05:11:32;99699.44;;;7.05;72.49
37200;BME280;23096;50.892;16.746;2024-02-21T05:13:57;99699.60;;;7.05;72.53
37200;BME280;23096;50.892;16.746;2024-02-21T05:16:23;99701.48;;;7.06;72.41
37200;BME280;23096;50.892;16.746;2024-02-21T05:18:48;99704.04;;;7.06;72.31
37200;BME280;23096;50.892;16.746;2024-02-21T05:21:14;99699.07;;;7.06;72.30
37200;BME280;23096;50.892;16.746;2024-02-21T05:23:40;99695.48;;;7.08;72.29
37200;BME280;23096;50.892;16.746;2024-02-21T05:26:06;99697.17;;;7.09;72.24
37200;BME280;23096;50.892;16.746;2024-02-21T05:28:32;99698.18;;;7.10;72.17
37200;BME280;23096;50.892;16.746;2024-02-21T05:30:57;99697.66;;;7.10;72.12
37200;BME280;23096;50.892;16.746;2024-02-21T05:33:24;99695.27;;;7.10;72.06
37200;BME280;23096;50.892;16.746;2024-02-21T05:35:50;99692.70;;;7.11;72.02
37200;BME280;23096;50.892;16.746;2024-02-21T05:38:16;99689.29;;;7.11;71.96
37200;BME280;23096;50.892;16.746;2024-02-21T05:40:42;99684.30;;;7.14;71.93
37200;BME280;23096;50.892;16.746;2024-02-21T05:43:08;99684.64;;;7.14;71.86
37200;BME280;23096;50.892;16.746;2024-02-21T05:45:34;99680.88;;;7.15;71.83
37200;BME280;23096;50.892;16.746;2024-02-21T05:48:00;99679.52;;;7.14;71.77
37200;BME280;23096;50.892;16.746;2024-02-21T05:50:26;99679.48;;;7.17;71.80
37200;BME280;23096;50.892;16.746;2024-02-21T05:52:55;99676.92;;;7.18;71.78
37200;BME280;23096;50.892;16.746;2024-02-21T05:55:23;99676.88;;;7.21;71.72
37200;BME280;23096;50.892;16.746;2024-02-21T05:57:49;99670.03;;;7.22;71.66
37200;BME280;23096;50.892;16.746;2024-02-21T06:00:15;99672.26;;;7.22;71.56
37200;BME280;23096;50.892;16.746;2024-02-21T06:02:41;99673.30;;;7.21;71.50
37200;BME280;23096;50.892;16.746;2024-02-21T06:05:08;99668.84;;;7.22;71.46
37200;BME280;23096;50.892;16.746;2024-02-21T06:07:34;99671.23;;;7.21;71.46
37200;BME280;23096;50.892;16.746;2024-02-21T06:10:01;99675.34;;;7.22;71.43
37200;BME280;23096;50.892;16.746;2024-02-21T06:12:27;99674.80;;;7.23;71.40
37200;BME280;23096;50.892;16.746;2024-02-21T06:14:54;99675.98;;;7.25;71.36
37200;BME280;23096;50.892;16.746;2024-02-21T06:17:19;99673.08;;;7.24;71.32
37200;BME280;23096;50.892;16.746;2024-02-21T06:19:45;99676.30;;;7.26;71.33
37200;BME280;23096;50.892;16.746;2024-02-21T06:22:11;99680.23;;;7.27;71.28
37200;BME280;23096;50.892;16.746;2024-02-21T06:24:37;99680.06;;;7.28;71.22
37200;BME280;23096;50.892;16.746;2024-02-21T06:27:04;99680.40;;;7.28;71.12
37200;BME280;23096;50.892;16.746;2024-02-21T06:29:31;99684.15;;;7.28;71.11
37200;BME280;23096;50.892;16.746;2024-02-21T06:31:57;99682.45;;;7.28;71.10
37200;BME280;23096;50.892;16.746;2024-02-21T06:34:22;99683.15;;;7.27;71.04
37200;BME280;23096;50.892;16.746;2024-02-21T06:36:50;99678.34;;;7.28;71.06
37200;BME280;23096;50.892;16.746;2024-02-21T06:39:15;99677.14;;;7.28;71.04
37200;BME280;23096;50.892;16.746;2024-02-21T06:41:41;99679.19;;;7.29;71.02
37200;BME280;23096;50.892;16.746;2024-02-21T06:44:07;99682.08;;;7.30;71.00
37200;BME280;23096;50.892;16.746;2024-02-21T06:46:33;99681.39;;;7.30;71.00
37200;BME280;23096;50.892;16.746;2024-02-21T06:48:59;99677.96;;;7.31;71.03
37200;BME280;23096;50.892;16.746;2024-02-21T06:51:25;99676.41;;;7.32;70.96
37200;BME280;23096;50.892;16.746;2024-02-21T06:53:51;99673.86;;;7.31;70.93
37200;BME280;23096;50.892;16.746;2024-02-21T06:56:16;99676.25;;;7.30;70.91
37200;BME280;23096;50.892;16.746;2024-02-21T06:58:43;99678.84;;;7.29;70.91
37200;BME280;23096;50.892;16.746;2024-02-21T07:01:08;99682.09;;;7.29;70.93
37200;BME280;23096;50.892;16.746;2024-02-21T07:03:34;99679.20;;;7.28;70.88
37200;BME280;23096;50.892;16.746;2024-02-21T07:06:00;99680.91;;;7.27;70.84
37200;BME280;23096;50.892;16.746;2024-02-21T07:08:25;99679.21;;;7.26;70.87
37200;BME280;23096;50.892;16.746;2024-02-21T07:10:51;99672.73;;;7.26;70.87
37200;BME280;23096;50.892;16.746;2024-02-21T07:13:17;99673.23;;;7.25;70.89
37200;BME280;23096;50.892;16.746;2024-02-21T07:15:43;99676.31;;;7.25;70.93
37200;BME280;23096;50.892;16.746;2024-02-21T07:18:08;99673.77;;;7.25;70.88
37200;BME280;23096;50.892;16.746;2024-02-21T07:20:34;99670.02;;;7.23;70.85
37200;BME280;23096;50.892;16.746;2024-02-21T07:23:02;99660.98;;;7.21;70.90
37200;BME280;23096;50.892;16.746;2024-02-21T07:25:28;99668.16;;;7.22;70.91
37200;BME280;23096;50.892;16.746;2024-02-21T07:27:53;99666.95;;;7.23;70.95
37200;BME280;23096;50.892;16.746;2024-02-21T07:30:19;99664.52;;;7.26;70.98
37200;BME280;23096;50.892;16.746;2024-02-21T07:32:44;99665.52;;;7.28;71.02
37200;BME280;23096;50.892;16.746;2024-02-21T07:35:10;99665.66;;;7.31;70.98
37200;BME280;23096;50.892;16.746;2024-02-21T07:37:37;99658.12;;;7.33;71.04
37200;BME280;23096;50.892;16.746;2024-02-21T07:40:06;99654.49;;;7.35;71.05
37200;BME280;23096;50.892;16.746;2024-02-21T07:42:32;99656.17;;;7.38;71.11
37200;BME280;23096;50.892;16.746;2024-02-21T07:44:58;99657.87;;;7.39;71.03
37200;BME280;23096;50.892;16.746;2024-02-21T07:47:24;99652.90;;;7.40;71.02
37200;BME280;23096;50.892;16.746;2024-02-21T07:49:49;99649.28;;;7.42;71.02
37200;BME280;23096;50.892;16.746;2024-02-21T07:52:15;99645.35;;;7.43;71.10
37200;BME280;23096;50.892;16.746;2024-02-21T07:54:41;99643.27;;;7.45;71.09
37200;BME280;23096;50.892;16.746;2024-02-21T07:57:07;99636.91;;;7.47;71.11
37200;BME280;23096;50.892;16.746;2024-02-21T07:59:33;99635.88;;;7.48;71.11
37200;BME280;23096;50.892;16.746;2024-02-21T08:01:58;99632.27;;;7.51;71.13
37200;BME280;23096;50.892;16.746;2024-02-21T08:04:24;99630.52;;;7.53;71.05
37200;BME280;23096;50.892;16.746;2024-02-21T08:06:54;99626.75;;;7.54;71.09
37200;BME280;23096;50.892;16.746;2024-02-21T08:09:22;99622.63;;;7.55;71.10
37200;BME280;23096;50.892;16.746;2024-02-21T08:11:48;99621.06;;;7.57;71.10
37200;BME280;23096;50.892;16.746;2024-02-21T08:14:14;99618.99;;;7.58;71.08
37200;BME280;23096;50.892;16.746;2024-02-21T08:16:44;99619.48;;;7.60;71.06
37200;BME280;23096;50.892;16.746;2024-02-21T08:19:10;99622.52;;;7.63;71.06
37200;BME280;23096;50.892;16.746;2024-02-21T08:21:36;99618.91;;;7.64;71.06
37200;BME280;23096;50.892;16.746;2024-02-21T08:24:02;99618.39;;;7.64;71.04
37200;BME280;23096;50.892;16.746;2024-02-21T08:26:27;99616.02;;;7.64;71.04
37200;BME280;23096;50.892;16.746;2024-02-21T08:28:58;99611.73;;;7.63;71.00
37200;BME280;23096;50.892;16.746;2024-02-21T08:31:25;99613.41;;;7.65;71.07
37200;BME280;23096;50.892;16.746;2024-02-21T08:34:00;99615.80;;;7.67;71.01
37200;BME280;23096;50.892;16.746;2024-02-21T08:36:33;99615.44;;;7.68;71.05
37200;BME280;23096;50.892;16.746;2024-02-21T08:39:00;99613.05;;;7.68;71.08
37200;BME280;23096;50.892;16.746;2024-02-21T08:41:26;99608.79;;;7.67;71.07
37200;BME280;23096;50.892;16.746;2024-02-21T08:43:52;99612.38;;;7.67;71.06
37200;BME280;23096;50.892;16.746;2024-02-21T08:46:22;99607.61;;;7.66;71.06
37200;BME280;23096;50.892;16.746;2024-02-21T08:48:50;99609.15;;;7.65;71.04
37200;BME280;23096;50.892;16.746;2024-02-21T08:51:19;99607.45;;;7.65;71.04
37200;BME280;23096;50.892;16.746;2024-02-21T08:53:48;99609.48;;;7.65;71.04
37200;BME280;23096;50.892;16.746;2024-02-21T08:56:13;99607.95;;;7.65;71.02
37200;BME280;23096;50.892;16.746;2024-02-21T08:58:40;99604.86;;;7.66;71.05
37200;BME280;23096;50.892;16.746;2024-02-21T09:01:08;99604.65;;;7.69;71.14
37200;BME280;23096;50.892;16.746;2024-02-21T09:03:38;99602.89;;;7.72;71.13
37200;BME280;23096;50.892;16.746;2024-02-21T09:06:05;99597.58;;;7.73;71.09
37200;BME280;23096;50.892;16.746;2024-02-21T09:08:32;99595.88;;;7.73;71.09
37200;BME280;23096;50.892;16.746;2024-02-21T09:10:57;99595.70;;;7.73;71.10
37200;BME280;23096;50.892;16.746;2024-02-21T09:13:23;99594.00;;;7.72;71.17
37200;BME280;23096;50.892;16.746;2024-02-21T09:15:49;99592.98;;;7.72;71.13
37200;BME280;23096;50.892;16.746;2024-02-21T09:18:17;99589.04;;;7.72;71.16
37200;BME280;23096;50.892;16.746;2024-02-21T09:20:43;99587.66;;;7.73;71.20
37200;BME280;23096;50.892;16.746;2024-02-21T09:23:09;99588.66;;;7.75;71.27
37200;BME280;23096;50.892;16.746;2024-02-21T09:25:34;99593.09;;;7.76;71.25
37200;BME280;23096;50.892;16.746;2024-02-21T09:28:02;99589.15;;;7.76;71.32
37200;BME280;23096;50.892;16.746;2024-02-21T09:30:28;99586.11;;;7.75;71.27
37200;BME280;23096;50.892;16.746;2024-02-21T09:32:54;99580.31;;;7.73;71.29
37200;BME280;23096;50.892;16.746;2024-02-21T09:35:19;99581.17;;;7.73;71.33
37200;BME280;23096;50.892;16.746;2024-02-21T09:37:47;99579.29;;;7.72;71.38
37200;BME280;23096;50.892;16.746;2024-02-21T09:40:15;99583.05;;;7.73;71.45
37200;BME280;23096;50.892;16.746;2024-02-21T09:42:46;99580.34;;;7.71;71.47
37200;BME280;23096;50.892;16.746;2024-02-21T09:45:23;99577.63;;;7.70;71.51
37200;BME280;23096;50.892;16.746;2024-02-21T09:50:45;99578.13;;;7.71;71.56
37200;BME280;23096;50.892;16.746;2024-02-21T09:53:13;99570.39;;;7.74;71.65
37200;BME280;23096;50.892;16.746;2024-02-21T09:55:39;99568.60;;;7.78;71.73
37200;BME280;23096;50.892;16.746;2024-02-21T09:58:07;99571.25;;;7.83;71.74
37200;BME280;23096;50.892;16.746;2024-02-21T10:00:35;99570.66;;;7.89;71.77
37200;BME280;23096;50.892;16.746;2024-02-21T10:03:00;99570.92;;;7.94;71.85
37200;BME280;23096;50.892;16.746;2024-02-21T10:05:26;99574.61;;;7.98;71.88
37200;BME280;23096;50.892;16.746;2024-02-21T10:07:53;99571.15;;;8.01;71.91
37200;BME280;23096;50.892;16.746;2024-02-21T10:10:20;99565.96;;;8.05;71.92
37200;BME280;23096;50.892;16.746;2024-02-21T10:12:50;99565.35;;;8.10;72.04
37200;BME280;23096;50.892;16.746;2024-02-21T10:15:20;99564.75;;;8.15;72.01
37200;BME280;23096;50.892;16.746;2024-02-21T10:17:46;99557.33;;;8.19;72.05
37200;BME280;23096;50.892;16.746;2024-02-21T10:20:12;99554.84;;;8.25;72.08
37200;BME280;23096;50.892;16.746;2024-02-21T10:22:39;99554.91;;;8.31;72.05
37200;BME280;23096;50.892;16.746;2024-02-21T10:25:09;99558.76;;;8.35;72.11
37200;BME280;23096;50.892;16.746;2024-02-21T10:27:36;99559.41;;;8.37;72.04
37200;BME280;23096;50.892;16.746;2024-02-21T10:30:01;99563.85;;;8.37;71.95
37200;BME280;23096;50.892;16.746;2024-02-21T10:32:27;99566.40;;;8.39;71.93
37200;BME280;23096;50.892;16.746;2024-02-21T10:35:03;99569.14;;;8.38;71.93
37200;BME280;23096;50.892;16.746;2024-02-21T10:37:32;99569.70;;;8.37;71.88
37200;BME280;23096;50.892;16.746;2024-02-21T10:39:57;99565.43;;;8.36;71.85
37200;BME280;23096;50.892;16.746;2024-02-21T10:42:28;99558.23;;;8.38;71.90
37200;BME280;23096;50.892;16.746;2024-02-21T10:45:01;99559.59;;;8.37;71.77
37200;BME280;23096;50.892;16.746;2024-02-21T10:47:31;99559.48;;;8.34;71.81
37200;BME280;23096;50.892;16.746;2024-02-21T10:50:03;99550.77;;;8.33;71.74
37200;BME280;23096;50.892;16.746;2024-02-21T10:55:16;99540.11;;;8.35;71.77
37200;BME280;23096;50.892;16.746;2024-02-21T10:57:45;99540.04;;;8.39;71.75
37200;BME280;23096;50.892;16.746;2024-02-21T11:00:14;99536.92;;;8.42;71.78
37200;BME280;23096;50.892;16.746;2024-02-21T11:02:41;99532.91;;;8.47;71.78
37200;BME280;23096;50.892;16.746;2024-02-21T11:05:07;99531.64;;;8.50;71.68
37200;BME280;23096;50.892;16.746;2024-02-21T11:07:35;99522.34;;;8.53;71.68
37200;BME280;23096;50.892;16.746;2024-02-21T11:10:02;99519.00;;;8.58;71.74
37200;BME280;23096;50.892;16.746;2024-02-21T11:12:32;99519.95;;;8.62;71.74
37200;BME280;23096;50.892;16.746;2024-02-21T11:15:05;99519.69;;;8.67;71.63
37200;BME280;23096;50.892;16.746;2024-02-21T11:17:31;99517.55;;;8.70;71.58
37200;BME280;23096;50.892;16.746;2024-02-21T11:19:57;99513.92;;;8.72;71.57
37200;BME280;23096;50.892;16.746;2024-02-21T11:22:24;99508.25;;;8.74;71.48
37200;BME280;23096;50.892;16.746;2024-02-21T11:24:54;99505.27;;;8.77;71.35
37200;BME280;23096;50.892;16.746;2024-02-21T11:27:22;99500.80;;;8.78;71.44
37200;BME280;23096;50.892;16.746;2024-02-21T11:30:26;99498.20;;;8.79;71.43
37200;BME280;23096;50.892;16.746;2024-02-21T11:33:06;99487.42;;;8.79;71.30
37200;BME280;23096;50.892;16.746;2024-02-21T11:35:36;99485.03;;;8.78;71.30
37200;BME280;23096;50.892;16.746;2024-02-21T11:38:12;99481.05;;;8.80;71.17
37200;BME280;23096;50.892;16.746;2024-02-21T11:40:46;99476.85;;;8.85;71.26
37200;BME280;23096;50.892;16.746;2024-02-21T11:43:11;99469.70;;;8.91;71.33
37200;BME280;23096;50.892;16.746;2024-02-21T11:45:38;99471.42;;;8.98;71.29
37200;BME280;23096;50.892;16.746;2024-02-21T11:48:08;99472.95;;;9.06;71.38
37200;BME280;23096;50.892;16.746;2024-02-21T11:50:36;99471.45;;;9.12;71.25
37200;BME280;23096;50.892;16.746;2024-02-21T11:53:02;99465.52;;;9.17;71.17
37200;BME280;23096;50.892;16.746;2024-02-21T11:55:28;99466.52;;;9.26;71.35
37200;BME280;23096;50.892;16.746;2024-02-21T11:57:54;99468.78;;;9.39;71.38
37200;BME280;23096;50.892;16.746;2024-02-21T12:00:20;99473.52;;;9.49;71.35
37200;BME280;23096;50.892;16.746;2024-02-21T12:02:46;99471.52;;;9.54;71.16
37200;BME280;23096;50.892;16.746;2024-02-21T12:05:12;99472.11;;;9.57;71.05
37200;BME280;23096;50.892;16.746;2024-02-21T12:07:37;99471.59;;;9.58;70.98
37200;BME280;23096;50.892;16.746;2024-02-21T12:10:13;99474.15;;;9.59;70.89
37200;BME280;23096;50.892;16.746;2024-02-21T12:12:38;99472.81;;;9.57;70.77
37200;BME280;23096;50.892;16.746;2024-02-21T12:15:05;99466.24;;;9.53;70.65
37200;BME280;23096;50.892;16.746;2024-02-21T12:17:38;99460.84;;;9.49;70.60
37200;BME280;23096;50.892;16.746;2024-02-21T12:20:05;99460.11;;;9.43;70.40
37200;BME280;23096;50.892;16.746;2024-02-21T12:22:43;99458.25;;;9.42;70.52
37200;BME280;23096;50.892;16.746;2024-02-21T12:25:19;99457.21;;;9.43;70.46
37200;BME280;23096;50.892;16.746;2024-02-21T12:27:46;99454.34;;;9.40;70.37
37200;BME280;23096;50.892;16.746;2024-02-21T12:30:11;99440.49;;;9.39;70.32
37200;BME280;23096;50.892;16.746;2024-02-21T12:32:37;99429.09;;;9.36;70.25
37200;BME280;23096;50.892;16.746;2024-02-21T12:35:03;99427.62;;;9.32;70.12
37200;BME280;23096;50.892;16.746;2024-02-21T12:37:29;99424.44;;;9.29;70.20
37200;BME280;23096;50.892;16.746;2024-02-21T12:46:27;99414.77;;;9.39;70.28
37200;BME280;23096;50.892;16.746;2024-02-21T12:48:52;99406.13;;;9.42;70.22
37200;BME280;23096;50.892;16.746;2024-02-21T12:51:18;99402.84;;;9.44;70.10
37200;BME280;23096;50.892;16.746;2024-02-21T12:53:47;99394.37;;;9.46;70.06
37200;BME280;23096;50.892;16.746;2024-02-21T12:56:15;99390.58;;;9.47;70.08
37200;BME280;23096;50.892;16.746;2024-02-21T12:58:41;99382.86;;;9.47;70.04
37200;BME280;23096;50.892;16.746;2024-02-21T13:01:06;99372.50;;;9.50;70.01
37200;BME280;23096;50.892;16.746;2024-02-21T13:03:32;99362.95;;;9.54;69.92
37200;BME280;23096;50.892;16.746;2024-02-21T13:05:57;99367.14;;;9.59;70.05
37200;BME280;23096;50.892;16.746;2024-02-21T13:08:28;99366.38;;;9.62;70.05
37200;BME280;23096;50.892;16.746;2024-02-21T13:10:53;99372.14;;;9.64;69.91
37200;BME280;23096;50.892;16.746;2024-02-21T13:13:19;99367.83;;;9.64;69.75